Time;durP1;ratioP1;P1;durP2;ratioP2;P2;SDS_P1;SDS_P2;PMS_P1;PMS_P2;Temp;Humidity;BMP_temperature;BMP_pressure;BME280_temperature;BME280_humidity;BME280_pressure;Samples;Min_cycle;Max_cycle;Signal;HPM_P1;HPM_P2
2022/01/08 00:02:08;;;;;;;18.70;10.18;;;;;;;;;;5149709;27;20075;-81
2022/01/08 00:04:35;;;;;;;22.73;10.55;;;;;;;;;;5157246;27;20169;-81
2022/01/08 00:07:02;;;;;;;19.00;10.40;;;;;;;;;;5136548;27;20138;-81
2022/01/08 00:09:28;;;;;;;21.70;10.70;;;;;;;;;;5146094;27;20052;-81
2022/01/08 00:11:55;;;;;;;20.65;10.52;;;;;;;;;;5112177;27;20510;-81
2022/01/08 00:14:23;;;;;;;22.55;11.43;;;;;;;;;;5141879;27;20103;-82
2022/01/08 00:16:49;;;;;;;23.05;10.63;;;;;;;;;;5137311;27;20742;-82
2022/01/08 00:19:15;;;;;;;22.98;11.80;;;;;;;;;;5142236;27;20083;-82
2022/01/08 00:21:42;;;;;;;22.10;10.80;;;;;;;;;;5111596;27;20055;-81
2022/01/08 00:24:09;;;;;;;20.63;10.70;;;;;;;;;;5140762;27;20162;-81
2022/01/08 00:26:35;;;;;;;25.20;11.10;;;;;;;;;;5139324;27;20085;-81
2022/01/08 00:29:01;;;;;;;22.42;11.48;;;;;;;;;;5151185;27;20043;-81
2022/01/08 00:31:28;;;;;;;22.90;10.27;;;;;;;;;;5150868;27;20878;-81
2022/01/08 00:33:54;;;;;;;24.98;11.05;;;;;;;;;;5150777;27;20047;-81
2022/01/08 00:36:21;;;;;;;21.02;10.52;;;;;;;;;;5147929;27;20054;-81
2022/01/08 00:38:47;;;;;;;18.52;10.25;;;;;;;;;;5172356;27;20050;-81
2022/01/08 00:41:13;;;;;;;20.65;10.60;;;;;;;;;;5141075;27;20081;-81
2022/01/08 00:43:40;;;;;;;18.88;10.07;;;;;;;;;;5146656;27;20086;-81
2022/01/08 00:46:06;;;;;;;18.75;10.27;;;;;;;;;;5168430;27;20588;-81
2022/01/08 00:48:33;;;;;;;28.73;10.77;;;;;;;;;;5157766;27;20647;-82
2022/01/08 00:50:59;;;;;;;20.25;10.60;;;;;;;;;;5133079;27;20059;-81
2022/01/08 00:53:26;;;;;;;18.45;9.88;;;;;;;;;;5149632;27;20093;-82
2022/01/08 00:55:52;;;;;;;21.00;10.40;;;;;;;;;;5133346;27;20091;-81
2022/01/08 00:58:19;;;;;;;20.48;10.65;;;;;;;;;;5149791;27;20059;-81
2022/01/08 01:00:45;;;;;;;17.80;9.80;;;;;;;;;;5149932;27;20105;-81
2022/01/08 01:03:12;;;;;;;30.27;10.85;;;;;;;;;;5144267;27;20542;-81
2022/01/08 01:05:38;;;;;;;21.20;10.57;;;;;;;;;;5160022;27;20047;-81
2022/01/08 01:08:05;;;;;;;22.42;11.15;;;;;;;;;;5153603;27;20082;-81
2022/01/08 01:10:32;;;;;;;25.30;11.10;;;;;;;;;;5148176;27;20050;-81
2022/01/08 01:12:58;;;;;;;24.70;10.75;;;;;;;;;;5162054;27;20129;-82
2022/01/08 01:15:24;;;;;;;29.75;10.75;;;;;;;;;;5144405;27;20079;-82
2022/01/08 01:17:51;;;;;;;22.58;10.07;;;;;;;;;;5150877;27;20047;-81
2022/01/08 01:20:20;;;;;;;22.10;9.80;;;;;;;;;;5132396;27;20506;-81
2022/01/08 01:25:24;;;;;;;21.52;10.00;;;;;;;;;;5150021;27;20063;-81
2022/01/08 01:49:18;;;;;;;20.95;9.98;;;;;;;;;;5171607;27;20078;-81
2022/01/08 01:51:45;;;;;;;18.67;9.45;;;;;;;;;;5149490;27;20648;-81
2022/01/08 01:54:11;;;;;;;23.65;8.98;;;;;;;;;;5170974;27;20051;-81
2022/01/08 01:56:38;;;;;;;17.08;9.43;;;;;;;;;;5136803;27;20050;-81
2022/01/08 01:59:05;;;;;;;20.67;9.85;;;;;;;;;;5132456;27;20121;-81
2022/01/08 02:01:31;;;;;;;15.13;8.35;;;;;;;;;;5150376;27;20086;-81
2022/01/08 02:03:58;;;;;;;20.77;9.30;;;;;;;;;;5170902;27;20472;-81
2022/01/08 02:06:24;;;;;;;27.20;10.68;;;;;;;;;;5135741;27;20139;-81
2022/01/08 02:08:51;;;;;;;22.50;9.93;;;;;;;;;;5132129;27;20950;-81
2022/01/08 02:11:20;;;;;;;21.27;10.98;;;;;;;;;;5140029;27;20098;-81
2022/01/08 02:13:50;;;;;;;20.30;9.77;;;;;;;;;;5130713;27;20058;-81
2022/01/08 02:16:17;;;;;;;21.67;10.70;;;;;;;;;;5131191;27;20101;-81
2022/01/08 02:18:47;;;;;;;29.20;10.48;;;;;;;;;;5145488;27;20056;-81
2022/01/08 02:21:14;;;;;;;17.90;8.93;;;;;;;;;;5145990;27;20085;-81
2022/01/08 02:23:41;;;;;;;25.80;9.55;;;;;;;;;;5132540;27;20101;-81
2022/01/08 02:26:08;;;;;;;18.02;9.25;;;;;;;;;;5137175;27;20078;-81
2022/01/08 02:28:36;;;;;;;17.25;9.10;;;;;;;;;;5140293;27;20051;-81
2022/01/08 02:31:03;;;;;;;20.92;9.27;;;;;;;;;;5150769;27;20568;-81
2022/01/08 02:33:29;;;;;;;18.67;8.35;;;;;;;;;;5149108;27;20055;-80
2022/01/08 02:35:56;;;;;;;14.63;8.57;;;;;;;;;;5133679;27;20487;-80
2022/01/08 02:38:23;;;;;;;24.13;9.38;;;;;;;;;;5141138;27;20965;-80
2022/01/08 02:40:54;;;;;;;22.65;9.93;;;;;;;;;;5134867;27;20670;-81
2022/01/08 02:43:22;;;;;;;18.70;9.23;;;;;;;;;;5131083;27;20128;-81
2022/01/08 02:45:49;;;;;;;19.38;8.43;;;;;;;;;;5136618;27;20105;-80
2022/01/08 02:48:15;;;;;;;17.77;8.27;;;;;;;;;;5130448;27;20048;-80
2022/01/08 02:50:42;;;;;;;20.10;8.88;;;;;;;;;;5152734;27;20047;-80
2022/01/08 02:53:08;;;;;;;17.65;8.80;;;;;;;;;;5134381;27;20091;-80
2022/01/08 02:55:36;;;;;;;19.85;8.63;;;;;;;;;;5136494;27;20142;-80
2022/01/08 02:58:03;;;;;;;15.38;7.95;;;;;;;;;;5152632;27;20583;-80
2022/01/08 03:00:30;;;;;;;16.98;8.60;;;;;;;;;;5152846;27;20614;-80
2022/01/08 03:02:56;;;;;;;20.17;7.93;;;;;;;;;;5135602;27;20047;-80
2022/01/08 03:05:23;;;;;;;17.75;7.60;;;;;;;;;;5123296;27;20589;-80
2022/01/08 03:07:50;;;;;;;16.90;8.25;;;;;;;;;;5147294;27;20112;-80
2022/01/08 03:10:17;;;;;;;21.05;8.48;;;;;;;;;;5155526;27;20513;-80
2022/01/08 03:12:44;;;;;;;20.23;8.50;;;;;;;;;;5140943;27;20105;-80
2022/01/08 03:15:15;;;;;;;16.50;8.55;;;;;;;;;;5150500;27;20051;-80
2022/01/08 03:17:41;;;;;;;;;;;;;;;;;;5134791;27;20047;-80
2022/01/08 03:20:11;;;;;;;15.60;8.00;;;;;;;;;;5129369;27;46338;-80
2022/01/08 03:22:38;;;;;;;18.98;8.75;;;;;;;;;;5132185;27;20043;-80
2022/01/08 03:25:05;;;;;;;16.38;8.63;;;;;;;;;;5133144;27;20058;-80
2022/01/08 03:27:32;;;;;;;17.08;8.85;;;;;;;;;;5151231;27;20051;-80
2022/01/08 03:29:58;;;;;;;19.15;8.00;;;;;;;;;;5150585;27;20079;-80
2022/01/08 03:32:25;;;;;;;18.00;8.43;;;;;;;;;;5150618;27;20114;-80
2022/01/08 03:34:51;;;;;;;20.17;8.45;;;;;;;;;;5153216;27;20190;-81
2022/01/08 03:37:18;;;;;;;16.95;7.60;;;;;;;;;;5130272;27;20047;-81
2022/01/08 03:39:44;;;;;;;19.92;7.35;;;;;;;;;;5152500;27;20096;-81
2022/01/08 03:42:11;;;;;;;15.68;7.82;;;;;;;;;;5133428;27;20101;-81
2022/01/08 03:44:37;;;;;;;15.60;7.07;;;;;;;;;;5139369;27;20562;-81
2022/01/08 03:49:49;;;;;;;16.75;7.35;;;;;;;;;;5152350;27;20055;-81
2022/01/08 03:52:16;;;;;;;26.05;7.03;;;;;;;;;;5133509;27;20067;-81
2022/01/08 03:54:43;;;;;;;16.08;6.15;;;;;;;;;;5134919;27;20082;-81
2022/01/08 03:57:09;;;;;;;17.02;6.38;;;;;;;;;;5131156;27;20514;-81
2022/01/08 03:59:36;;;;;;;16.20;6.82;;;;;;;;;;5133579;27;20075;-80
2022/01/08 04:02:03;;;;;;;14.90;6.45;;;;;;;;;;5150610;27;20052;-80
2022/01/08 04:04:29;;;;;;;16.25;5.75;;;;;;;;;;5159802;27;20051;-80
2022/01/08 04:06:56;;;;;;;15.93;6.40;;;;;;;;;;5134034;27;20164;-80
2022/01/08 04:09:22;;;;;;;13.23;6.43;;;;;;;;;;5151525;27;20047;-81
2022/01/08 04:11:50;;;;;;;13.43;5.80;;;;;;;;;;5126194;27;20168;-81
2022/01/08 04:14:18;;;;;;;13.88;6.78;;;;;;;;;;5148492;27;20077;-81
2022/01/08 04:16:48;;;;;;;18.25;7.22;;;;;;;;;;5144070;27;20086;-80
2022/01/08 04:19:16;;;;;;;14.90;7.03;;;;;;;;;;5123936;27;20575;-80
2022/01/08 04:22:09;;;;;;;20.02;7.57;;;;;;;;;;5128989;27;20047;-81
2022/01/08 04:24:36;;;;;;;19.88;7.53;;;;;;;;;;5146046;27;20094;-81
2022/01/08 04:27:03;;;;;;;22.00;8.15;;;;;;;;;;5132282;27;20051;-80
2022/01/08 04:29:29;;;;;;;18.55;7.53;;;;;;;;;;5132786;27;20502;-80
2022/01/08 04:31:56;;;;;;;17.17;8.38;;;;;;;;;;5133047;27;20138;-80
2022/01/08 04:34:22;;;;;;;11.60;6.60;;;;;;;;;;5134470;27;20047;-80
2022/01/08 04:36:48;;;;;;;24.27;7.93;;;;;;;;;;5132391;27;20078;-81
2022/01/08 04:39:15;;;;;;;21.00;7.68;;;;;;;;;;5132437;27;20105;-80
2022/01/08 04:41:43;;;;;;;24.30;7.88;;;;;;;;;;5154463;27;20124;-80
2022/01/08 04:44:10;;;;;;;19.40;7.55;;;;;;;;;;5141879;27;20528;-80
2022/01/08 04:46:38;;;;;;;17.55;7.13;;;;;;;;;;5149494;27;20124;-81
2022/01/08 04:49:05;;;;;;;18.77;7.18;;;;;;;;;;5150597;27;20101;-80
2022/01/08 04:51:31;;;;;;;13.52;6.63;;;;;;;;;;5150970;27;20086;-80
2022/01/08 04:53:58;;;;;;;13.00;6.78;;;;;;;;;;5155312;27;20134;-80
2022/01/08 04:56:24;;;;;;;13.88;6.57;;;;;;;;;;5131980;27;20109;-81
2022/01/08 04:58:50;;;;;;;16.25;7.72;;;;;;;;;;5138195;27;20117;-81
2022/01/08 05:01:17;;;;;;;15.45;7.07;;;;;;;;;;5111643;27;20051;-81
2022/01/08 05:03:44;;;;;;;16.67;6.95;;;;;;;;;;5127045;27;20059;-80
2022/01/08 05:06:10;;;;;;;17.77;6.22;;;;;;;;;;5134916;27;20134;-80
2022/01/08 05:08:37;;;;;;;16.67;7.20;;;;;;;;;;5132279;27;20105;-81
2022/01/08 05:11:03;;;;;;;17.67;7.20;;;;;;;;;;5151344;27;20493;-80
2022/01/08 05:13:29;;;;;;;14.75;7.20;;;;;;;;;;5132373;27;20102;-80
2022/01/08 05:15:57;;;;;;;18.23;7.07;;;;;;;;;;5135725;27;20094;-81
2022/01/08 05:18:24;;;;;;;13.25;6.47;;;;;;;;;;5156570;27;20536;-81
2022/01/08 05:21:06;;;;;;;18.15;6.68;;;;;;;;;;5132132;27;20051;-81
2022/01/08 05:23:33;;;;;;;17.40;6.53;;;;;;;;;;5151728;27;20132;-81
2022/01/08 05:25:59;;;;;;;19.90;6.93;;;;;;;;;;5152062;27;20141;-80
2022/01/08 05:28:25;;;;;;;16.77;6.68;;;;;;;;;;5151252;27;20051;-81
2022/01/08 05:30:52;;;;;;;15.13;6.60;;;;;;;;;;5169020;27;20090;-81
2022/01/08 05:33:18;;;;;;;16.58;6.05;;;;;;;;;;5166740;27;20050;-81
2022/01/08 05:35:45;;;;;;;12.95;6.88;;;;;;;;;;5133651;27;20066;-81
2022/01/08 05:38:11;;;;;;;14.45;6.38;;;;;;;;;;5150417;27;20083;-81
2022/01/08 05:40:38;;;;;;;17.27;6.03;;;;;;;;;;5151623;27;20085;-81
2022/01/08 05:43:04;;;;;;;21.65;6.40;;;;;;;;;;5162135;27;20500;-81
2022/01/08 05:45:31;;;;;;;17.15;6.93;;;;;;;;;;5136210;27;20545;-81
2022/01/08 05:47:57;;;;;;;14.90;6.38;;;;;;;;;;5151488;27;20051;-80
2022/01/08 05:50:23;;;;;;;13.82;5.88;;;;;;;;;;5133953;27;20055;-81
2022/01/08 05:52:50;;;;;;;20.10;6.30;;;;;;;;;;5134333;27;20137;-81
2022/01/08 05:55:16;;;;;;;21.10;6.82;;;;;;;;;;5151760;27;20047;-81
2022/01/08 05:57:42;;;;;;;13.30;5.90;;;;;;;;;;5135847;27;20047;-81
2022/01/08 06:00:09;;;;;;;12.70;6.05;;;;;;;;;;5153121;27;20085;-81
2022/01/08 06:02:36;;;;;;;17.73;5.97;;;;;;;;;;5154860;27;20043;-80
2022/01/08 06:05:04;;;;;;;10.40;5.57;;;;;;;;;;5174243;27;20078;-81
2022/01/08 06:07:30;;;;;;;16.05;6.20;;;;;;;;;;5155285;27;20407;-80
2022/01/08 06:09:56;;;;;;;18.38;5.95;;;;;;;;;;5152179;27;20516;-81
2022/01/08 06:12:22;;;;;;;14.98;6.60;;;;;;;;;;5115176;27;20067;-81
2022/01/08 06:14:49;;;;;;;16.05;6.07;;;;;;;;;;5134119;27;20053;-81
2022/01/08 06:17:15;;;;;;;13.82;6.22;;;;;;;;;;5155890;27;20103;-81
2022/01/08 06:19:41;;;;;;;22.38;6.60;;;;;;;;;;5140961;27;20059;-81
2022/01/08 06:22:08;;;;;;;14.48;5.90;;;;;;;;;;5152597;27;20548;-81
2022/01/08 06:24:34;;;;;;;12.88;6.78;;;;;;;;;;5159287;27;20115;-81
2022/01/08 06:27:01;;;;;;;17.73;7.50;;;;;;;;;;5166753;27;20090;-81
2022/01/08 06:29:27;;;;;;;19.35;7.68;;;;;;;;;;5134531;27;20051;-81
2022/01/08 06:31:53;;;;;;;25.55;8.38;;;;;;;;;;5153153;27;20224;-81
2022/01/08 06:34:20;;;;;;;17.38;6.75;;;;;;;;;;5137901;27;20582;-80
2022/01/08 06:36:49;;;;;;;16.30;7.53;;;;;;;;;;5154122;27;20067;-81
2022/01/08 06:39:16;;;;;;;22.70;7.65;;;;;;;;;;5147186;27;20047;-81
2022/01/08 06:41:42;;;;;;;13.65;5.82;;;;;;;;;;5136546;27;20031;-80
2022/01/08 06:44:09;;;;;;;17.98;5.13;;;;;;;;;;5151180;27;20051;-81
2022/01/08 06:46:35;;;;;;;13.05;5.40;;;;;;;;;;5154543;27;20101;-81
2022/01/08 06:49:02;;;;;;;15.75;4.80;;;;;;;;;;5154311;27;20059;-81
2022/01/08 06:51:28;;;;;;;19.25;5.22;;;;;;;;;;5135581;27;20149;-81
2022/01/08 06:53:55;;;;;;;20.50;5.10;;;;;;;;;;5153012;27;20052;-81
2022/01/08 06:56:21;;;;;;;13.75;4.55;;;;;;;;;;5160544;27;20063;-81
2022/01/08 06:58:48;;;;;;;13.90;4.85;;;;;;;;;;5135234;27;20051;-81
2022/01/08 07:01:14;;;;;;;18.88;4.22;;;;;;;;;;5152928;27;20047;-80
2022/01/08 07:03:41;;;;;;;12.75;4.72;;;;;;;;;;5132191;27;20055;-81
2022/01/08 07:06:07;;;;;;;13.48;4.80;;;;;;;;;;5134120;27;20055;-81
2022/01/08 07:08:34;;;;;;;13.77;4.88;;;;;;;;;;5137128;27;20085;-81
2022/01/08 07:11:00;;;;;;;18.75;4.55;;;;;;;;;;5152817;27;20055;-81
2022/01/08 07:13:26;;;;;;;17.92;4.50;;;;;;;;;;5154056;27;20085;-81
2022/01/08 07:15:53;;;;;;;13.38;4.50;;;;;;;;;;5153631;27;20047;-81
2022/01/08 07:18:19;;;;;;;23.27;6.35;;;;;;;;;;5131442;27;20117;-80
2022/01/08 07:20:45;;;;;;;14.52;4.68;;;;;;;;;;5134005;27;20077;-81
2022/01/08 07:23:12;;;;;;;12.38;4.90;;;;;;;;;;5152702;27;20051;-81
2022/01/08 07:25:38;;;;;;;16.25;5.10;;;;;;;;;;5135984;27;20090;-81
2022/01/08 07:28:05;;;;;;;15.73;4.88;;;;;;;;;;5142699;27;20082;-80
2022/01/08 07:30:31;;;;;;;13.07;5.43;;;;;;;;;;5154604;27;20047;-81
2022/01/08 07:32:57;;;;;;;14.52;4.70;;;;;;;;;;5157283;27;20035;-80
2022/01/08 07:35:24;;;;;;;15.73;5.72;;;;;;;;;;5138552;27;20055;-81
2022/01/08 07:37:51;;;;;;;14.43;5.85;;;;;;;;;;5138546;27;20501;-81
2022/01/08 07:40:18;;;;;;;14.88;5.45;;;;;;;;;;5165783;27;21027;-81
2022/01/08 07:42:44;;;;;;;16.77;5.90;;;;;;;;;;5158195;27;20051;-81
2022/01/08 07:45:14;;;;;;;19.20;6.40;;;;;;;;;;5137769;27;20494;-80
2022/01/08 07:47:40;;;;;;;18.80;6.70;;;;;;;;;;5117763;27;20059;-81
2022/01/08 07:50:07;;;;;;;21.15;7.13;;;;;;;;;;5155431;27;20519;-81
2022/01/08 07:52:33;;;;;;;23.88;7.05;;;;;;;;;;5152937;27;20048;-81
2022/01/08 07:55:00;;;;;;;23.42;7.85;;;;;;;;;;5135519;27;20066;-80
2022/01/08 07:57:26;;;;;;;21.77;8.70;;;;;;;;;;5137939;27;20101;-81
2022/01/08 07:59:53;;;;;;;25.52;8.60;;;;;;;;;;5138402;27;20105;-81
2022/01/08 08:02:20;;;;;;;23.25;8.15;;;;;;;;;;5155330;27;20516;-80
2022/01/08 08:04:46;;;;;;;19.67;7.97;;;;;;;;;;5156331;27;20048;-80
2022/01/08 08:07:12;;;;;;;22.15;8.88;;;;;;;;;;5136935;27;20043;-81
2022/01/08 08:09:39;;;;;;;24.85;9.07;;;;;;;;;;5131973;27;20051;-81
2022/01/08 08:12:06;;;;;;;26.52;9.20;;;;;;;;;;5133085;27;20472;-81
2022/01/08 08:14:32;;;;;;;25.67;8.93;;;;;;;;;;5162276;27;20069;-81
2022/01/08 08:16:58;;;;;;;25.75;9.77;;;;;;;;;;5137383;27;20052;-81
2022/01/08 08:19:25;;;;;;;24.65;10.02;;;;;;;;;;5136383;27;20051;-81
2022/01/08 08:21:51;;;;;;;25.02;9.30;;;;;;;;;;5149529;27;20593;-80
2022/01/08 08:24:20;;;;;;;25.20;10.68;;;;;;;;;;5143017;27;20051;-81
2022/01/08 08:26:46;;;;;;;25.63;9.93;;;;;;;;;;5151543;27;20048;-81
2022/01/08 08:29:12;;;;;;;23.95;10.63;;;;;;;;;;5133438;27;20816;-81
2022/01/08 08:31:39;;;;;;;28.92;10.98;;;;;;;;;;5132680;27;20105;-81
2022/01/08 08:34:08;;;;;;;22.08;10.95;;;;;;;;;;5132557;27;20047;-80
2022/01/08 08:36:34;;;;;;;27.23;11.48;;;;;;;;;;5141166;27;20076;-80
2022/01/08 08:39:00;;;;;;;28.90;11.23;;;;;;;;;;5138748;27;20085;-81
2022/01/08 08:41:27;;;;;;;28.10;11.77;;;;;;;;;;5155004;27;20051;-81
2022/01/08 08:43:53;;;;;;;27.13;11.80;;;;;;;;;;5150027;27;20305;-80
2022/01/08 08:46:20;;;;;;;32.08;11.82;;;;;;;;;;5154831;27;20524;-81
2022/01/08 08:48:46;;;;;;;29.90;12.55;;;;;;;;;;5136417;27;20050;-81
2022/01/08 08:51:12;;;;;;;24.58;12.18;;;;;;;;;;5139306;27;20047;-81
2022/01/08 08:53:39;;;;;;;30.85;12.38;;;;;;;;;;5174797;27;20139;-80
2022/01/08 08:56:05;;;;;;;28.38;12.80;;;;;;;;;;5155594;27;20808;-81
2022/01/08 08:58:31;;;;;;;29.75;13.75;;;;;;;;;;5141725;27;20174;-80
2022/01/08 09:00:58;;;;;;;24.85;13.07;;;;;;;;;;5153271;27;20140;-81
2022/01/08 09:03:24;;;;;;;26.58;13.25;;;;;;;;;;5145029;27;20067;-80
2022/01/08 09:05:51;;;;;;;29.50;13.15;;;;;;;;;;5133550;27;20051;-81
2022/01/08 09:08:17;;;;;;;35.08;13.73;;;;;;;;;;5151697;27;21060;-81
2022/01/08 09:10:45;;;;;;;28.13;14.23;;;;;;;;;;5134396;27;20059;-81
2022/01/08 09:13:11;;;;;;;31.88;13.85;;;;;;;;;;5133578;27;21058;-81
2022/01/08 09:15:41;;;;;;;30.15;13.70;;;;;;;;;;5133461;27;20196;-81
2022/01/08 09:18:09;;;;;;;34.53;13.60;;;;;;;;;;5128500;27;20113;-81
2022/01/08 09:20:36;;;;;;;30.20;14.20;;;;;;;;;;5151163;27;20044;-81
2022/01/08 09:23:02;;;;;;;20.50;11.35;;;;;;;;;;5137382;27;20066;-80
2022/01/08 09:25:28;;;;;;;31.30;12.95;;;;;;;;;;5151802;27;20154;-81
2022/01/08 09:27:55;;;;;;;24.23;12.35;;;;;;;;;;5144995;27;20913;-81
2022/01/08 09:30:21;;;;;;;27.85;13.30;;;;;;;;;;5150211;27;20619;-81
2022/01/08 09:32:47;;;;;;;25.25;14.18;;;;;;;;;;5159058;27;20085;-80
2022/01/08 09:35:15;;;;;;;28.85;14.55;;;;;;;;;;5140633;27;20062;-80
2022/01/08 09:37:41;;;;;;;35.22;13.40;;;;;;;;;;5115270;27;20051;-80
2022/01/08 09:40:10;;;;;;;22.75;13.60;;;;;;;;;;5151147;27;20078;-80
2022/01/08 09:42:36;;;;;;;28.83;14.38;;;;;;;;;;5132771;27;20085;-81
2022/01/08 09:45:03;;;;;;;26.60;14.20;;;;;;;;;;5131870;27;20043;-81
2022/01/08 09:47:29;;;;;;;33.53;14.30;;;;;;;;;;5131622;27;20124;-80
2022/01/08 09:49:56;;;;;;;27.88;14.43;;;;;;;;;;5131546;27;20055;-80
2022/01/08 09:52:22;;;;;;;30.00;14.07;;;;;;;;;;5148264;27;20510;-82
2022/01/08 09:54:49;;;;;;;28.55;13.95;;;;;;;;;;5127041;27;20129;-80
2022/01/08 09:57:15;;;;;;;29.38;14.10;;;;;;;;;;5132758;27;20093;-80
2022/01/08 09:59:42;;;;;;;28.42;13.52;;;;;;;;;;5144857;27;21109;-80
2022/01/08 10:02:08;;;;;;;25.85;13.55;;;;;;;;;;5148079;27;20083;-80
2022/01/08 10:04:36;;;;;;;28.48;13.73;;;;;;;;;;5151235;27;20105;-79
2022/01/08 10:07:20;;;;;;;24.70;13.10;;;;;;;;;;5145471;27;20050;-82
2022/01/08 10:10:12;;;;;;;33.80;14.50;;;;;;;;;;5137249;27;20090;-80
2022/01/08 10:12:42;;;;;;;28.48;12.98;;;;;;;;;;5123407;27;20980;-79
2022/01/08 10:17:54;;;;;;;24.83;14.07;;;;;;;;;;5142460;27;20051;-80
2022/01/08 10:20:49;;;;;;;25.83;12.77;;;;;;;;;;5132725;27;20075;-80
2022/01/08 10:23:16;;;;;;;31.58;13.73;;;;;;;;;;5129486;27;20047;-81
2022/01/08 10:25:54;;;;;;;26.52;14.00;;;;;;;;;;5145923;27;20083;-81
2022/01/08 10:28:47;;;;;;;31.48;13.77;;;;;;;;;;5160240;27;20055;-80
2022/01/08 10:31:16;;;;;;;29.20;13.88;;;;;;;;;;5129362;27;20055;-80
2022/01/08 10:33:44;;;;;;;37.22;15.38;;;;;;;;;;5154668;27;20241;-79
2022/01/08 10:36:11;;;;;;;21.50;10.70;;;;;;;;;;5130763;27;20055;-80
2022/01/08 10:38:38;;;;;;;30.85;14.40;;;;;;;;;;5121002;27;20063;-79
2022/01/08 10:41:11;;;;;;;24.85;12.10;;;;;;;;;;5120153;27;20091;-80
2022/01/08 10:43:37;;;;;;;32.55;14.50;;;;;;;;;;5129771;27;20850;-80
2022/01/08 10:46:14;;;;;;;29.67;13.55;;;;;;;;;;5154306;27;20138;-79
2022/01/08 10:48:42;;;;;;;27.80;12.98;;;;;;;;;;5141260;27;20105;-80
2022/01/08 10:51:10;;;;;;;29.25;12.85;;;;;;;;;;5143282;27;20051;-80
2022/01/08 10:53:49;;;;;;;32.35;13.73;;;;;;;;;;5152728;27;20051;-79
2022/01/08 10:56:22;;;;;;;24.08;10.85;;;;;;;;;;5131799;27;20063;-79
2022/01/08 10:58:52;;;;;;;23.98;10.68;;;;;;;;;;5132340;27;20545;-79
2022/01/08 11:01:39;;;;;;;21.48;10.43;;;;;;;;;;5150817;27;20046;-80
2022/01/08 11:04:07;;;;;;;21.40;9.50;;;;;;;;;;5130871;27;20083;-80
2022/01/08 11:06:48;;;;;;;24.35;8.10;;;;;;;;;;5153207;27;20883;-80
2022/01/08 11:09:14;;;;;;;20.00;9.65;;;;;;;;;;5144249;27;20051;-80
2022/01/08 11:11:42;;;;;;;20.67;8.35;;;;;;;;;;5146752;27;20133;-79
2022/01/08 11:14:21;;;;;;;24.27;9.45;;;;;;;;;;5135878;27;20340;-80
2022/01/08 11:16:50;;;;;;;21.73;9.93;;;;;;;;;;5153044;27;20051;-78
2022/01/08 11:19:19;;;;;;;21.50;9.70;;;;;;;;;;5142810;27;20125;-80
2022/01/08 11:21:47;;;;;;;19.08;9.25;;;;;;;;;;5140590;27;20069;-80
2022/01/08 11:24:15;;;;;;;22.92;9.85;;;;;;;;;;5138444;27;20090;-80
2022/01/08 11:26:41;;;;;;;21.15;9.35;;;;;;;;;;5140563;27;20143;-80
2022/01/08 11:29:09;;;;;;;25.67;10.77;;;;;;;;;;5145443;27;20124;-79
2022/01/08 11:31:36;;;;;;;21.65;10.02;;;;;;;;;;5157646;27;20086;-79
2022/01/08 11:34:08;;;;;;;23.58;11.48;;;;;;;;;;5142836;27;20078;-80
2022/01/08 11:36:35;;;;;;;23.00;10.55;;;;;;;;;;5139894;27;20058;-80
2022/01/08 11:39:02;;;;;;;23.33;10.10;;;;;;;;;;5153670;27;20062;-81
2022/01/08 11:41:31;;;;;;;23.98;10.80;;;;;;;;;;5147709;27;20047;-81
2022/01/08 11:43:57;;;;;;;33.78;10.85;;;;;;;;;;5151620;27;20116;-81
2022/01/08 11:46:24;;;;;;;24.83;11.00;;;;;;;;;;5133795;27;20054;-81
2022/01/08 11:48:54;;;;;;;31.90;10.45;;;;;;;;;;5136314;27;20047;-81
2022/01/08 11:51:22;;;;;;;24.27;9.90;;;;;;;;;;5149445;27;20520;-81
2022/01/08 11:53:52;;;;;;;23.10;9.98;;;;;;;;;;5155499;27;20101;-79
2022/01/08 11:56:24;;;;;;;27.20;10.07;;;;;;;;;;5145010;27;20490;-78
2022/01/08 11:59:07;;;;;;;28.40;11.07;;;;;;;;;;5148660;27;20501;-78
2022/01/08 12:01:35;;;;;;;23.83;10.27;;;;;;;;;;5157970;27;20052;-78
2022/01/08 12:04:02;;;;;;;23.02;9.20;;;;;;;;;;5138854;27;20051;-78
2022/01/08 12:06:32;;;;;;;19.75;8.02;;;;;;;;;;5140471;27;20134;-78
2022/01/08 12:09:10;;;;;;;24.38;10.20;;;;;;;;;;5136295;27;20043;-78
2022/01/08 12:11:42;;;;;;;21.65;10.63;;;;;;;;;;5171326;27;20051;-78
2022/01/08 12:14:09;;;;;;;21.23;9.75;;;;;;;;;;5166095;27;20102;-79
2022/01/08 12:16:37;;;;;;;24.90;10.82;;;;;;;;;;5121226;27;20116;-78
2022/01/08 12:19:05;;;;;;;26.02;10.02;;;;;;;;;;5144904;27;20055;-78
2022/01/08 12:21:36;;;;;;;28.42;11.73;;;;;;;;;;5137924;27;20055;-80
2022/01/08 12:24:21;;;;;;;24.13;9.63;;;;;;;;;;5138742;27;20051;-79
2022/01/08 12:26:47;;;;;;;20.00;9.48;;;;;;;;;;5118669;27;20521;-78
2022/01/08 12:29:32;;;;;;;26.17;9.40;;;;;;;;;;5139298;27;20051;-79
2022/01/08 12:32:17;;;;;;;21.73;10.07;;;;;;;;;;5153182;27;20260;-79
2022/01/08 12:34:47;;;;;;;19.40;8.95;;;;;;;;;;5144808;27;20481;-78
2022/01/08 12:37:14;;;;;;;25.35;9.82;;;;;;;;;;5174722;27;20082;-79
2022/01/08 12:39:47;;;;;;;24.98;9.70;;;;;;;;;;5139669;27;20091;-79
2022/01/08 12:42:32;;;;;;;21.95;9.30;;;;;;;;;;5134380;27;20056;-78
2022/01/08 12:45:20;;;;;;;19.15;8.25;;;;;;;;;;5137862;27;20090;-78
2022/01/08 12:47:48;;;;;;;19.38;8.40;;;;;;;;;;5143845;27;20043;-79
2022/01/08 12:50:34;;;;;;;22.33;8.75;;;;;;;;;;5171440;27;20517;-79
2022/01/08 12:53:03;;;;;;;17.30;8.35;;;;;;;;;;5156251;27;20051;-79
2022/01/08 12:55:34;;;;;;;19.63;9.13;;;;;;;;;;5124240;27;20506;-79
2022/01/08 12:58:01;;;;;;;20.88;8.68;;;;;;;;;;5138709;27;20061;-79
2022/01/08 13:00:27;;;;;;;16.02;6.13;;;;;;;;;;5140002;27;20090;-79
2022/01/08 13:02:54;;;;;;;22.15;7.70;;;;;;;;;;5140726;27;20519;-79
2022/01/08 13:05:20;;;;;;;16.95;6.90;;;;;;;;;;5156633;27;20930;-78
2022/01/08 13:07:50;;;;;;;15.98;7.50;;;;;;;;;;5158241;27;20099;-79
2022/01/08 13:10:17;;;;;;;16.10;6.88;;;;;;;;;;5158225;27;20763;-79
2022/01/08 13:13:00;;;;;;;19.10;6.35;;;;;;;;;;5125354;27;20047;-79
2022/01/08 13:15:33;;;;;;;17.38;7.20;;;;;;;;;;5142816;27;20051;-78
2022/01/08 13:18:16;;;;;;;14.77;6.68;;;;;;;;;;5137467;27;20086;-79
2022/01/08 13:20:43;;;;;;;18.60;7.03;;;;;;;;;;5137907;27;20096;-79
2022/01/08 13:23:10;;;;;;;16.40;6.38;;;;;;;;;;5137702;27;20096;-79
2022/01/08 13:25:36;;;;;;;14.93;5.97;;;;;;;;;;5156575;27;20058;-79
2022/01/08 13:28:03;;;;;;;17.50;5.90;;;;;;;;;;5138407;27;20047;-79
2022/01/08 13:30:29;;;;;;;15.70;6.00;;;;;;;;;;5136843;27;20058;-79
2022/01/08 13:33:03;;;;;;;14.70;6.30;;;;;;;;;;5147965;27;20067;-79
2022/01/08 13:35:30;;;;;;;11.63;5.72;;;;;;;;;;5137590;27;20099;-78
2022/01/08 13:37:57;;;;;;;13.68;5.50;;;;;;;;;;5137258;27;20047;-79
2022/01/08 13:40:26;;;;;;;12.13;5.20;;;;;;;;;;5137934;27;20054;-79
2022/01/08 13:42:53;;;;;;;10.77;4.63;;;;;;;;;;5156552;27;20043;-79
2022/01/08 13:45:25;;;;;;;13.65;4.82;;;;;;;;;;5138460;27;20055;-79
2022/01/08 13:47:58;;;;;;;10.27;4.22;;;;;;;;;;5137980;27;20075;-78
2022/01/08 13:50:28;;;;;;;9.55;4.35;;;;;;;;;;5144222;27;20058;-78
2022/01/08 13:52:58;;;;;;;9.90;4.55;;;;;;;;;;5126938;27;20108;-79
2022/01/08 13:55:24;;;;;;;8.98;3.50;;;;;;;;;;5126087;27;20054;-79
2022/01/08 13:58:01;;;;;;;9.60;4.13;;;;;;;;;;5143932;27;20044;-79
2022/01/08 14:00:28;;;;;;;7.65;3.55;;;;;;;;;;5133342;27;20051;-80
2022/01/08 14:02:56;;;;;;;9.00;3.70;;;;;;;;;;5135649;27;20741;-79
2022/01/08 14:05:24;;;;;;;7.35;3.75;;;;;;;;;;5143063;27;20099;-79
2022/01/08 14:07:50;;;;;;;7.53;3.13;;;;;;;;;;5136457;27;20126;-79
2022/01/08 14:10:17;;;;;;;9.98;3.70;;;;;;;;;;5135643;27;20047;-79
2022/01/08 14:13:00;;;;;;;7.43;3.42;;;;;;;;;;5134344;27;20129;-80
2022/01/08 14:15:26;;;;;;;7.97;3.90;;;;;;;;;;5136980;27;20859;-79
2022/01/08 14:17:53;;;;;;;9.55;3.50;;;;;;;;;;5137036;27;20051;-80
2022/01/08 14:20:23;;;;;;;10.30;3.40;;;;;;;;;;5137093;27;20051;-80
2022/01/08 14:22:49;;;;;;;8.87;3.90;;;;;;;;;;5135358;27;20058;-79
2022/01/08 14:25:19;;;;;;;12.30;3.47;;;;;;;;;;5144575;27;20221;-80
2022/01/08 14:27:45;;;;;;;7.75;3.30;;;;;;;;;;5150590;27;20051;-79
2022/01/08 14:30:13;;;;;;;7.97;2.90;;;;;;;;;;5163903;27;20052;-79
2022/01/08 14:32:41;;;;;;;11.45;4.72;;;;;;;;;;5146147;27;20062;-79
2022/01/08 14:35:08;;;;;;;7.75;3.03;;;;;;;;;;5152692;27;20059;-79
2022/01/08 14:37:38;;;;;;;10.50;3.30;;;;;;;;;;5136593;27;20864;-80
2022/01/08 14:40:16;;;;;;;8.38;3.03;;;;;;;;;;5146587;27;20044;-80
2022/01/08 14:42:43;;;;;;;10.13;3.33;;;;;;;;;;5135999;27;20108;-79
2022/01/08 14:45:15;;;;;;;9.77;3.33;;;;;;;;;;5139122;27;20928;-80
2022/01/08 14:47:42;;;;;;;7.60;3.35;;;;;;;;;;5173822;27;20055;-78
2022/01/08 14:50:10;;;;;;;7.38;2.80;;;;;;;;;;5158862;27;20039;-80
2022/01/08 14:52:38;;;;;;;9.43;3.70;;;;;;;;;;5136840;27;20132;-79
2022/01/08 14:55:05;;;;;;;5.95;2.50;;;;;;;;;;5143749;27;20073;-79
2022/01/08 14:57:31;;;;;;;7.20;2.03;;;;;;;;;;5142334;27;20047;-79
2022/01/08 14:59:59;;;;;;;8.55;3.17;;;;;;;;;;5141169;27;20128;-79
2022/01/08 15:02:26;;;;;;;7.38;3.28;;;;;;;;;;5155623;27;20090;-80